Current Weather

Sydney Intl

Sydney, Australia (YSSY)

Report from: Tuesday, February 27, 2024 8:30 PM AEDT
Current time: Tuesday, February 27, 2024 8:42 PM AEDT

Nearby weather – Weather history – Daily summaries
Weather forecast

Temperature23.0°C (73.4°F)
Dew point19.0°C (66.2°F)
Winds 5 kts (2.6 m/s, 5.8 mph) North (10°)
Visibility6.2 mi. (10 km)
Clouds Few clouds 1,600 ft. (488 m)
Scattered clouds 2,000 ft. (610 m)
Ceiling: Broken clouds 3,000 ft. (914 m)
Altimeter30.09 in.Hg (1019 mB)
Relative humidity78 %
Density altitude1,036 ft. (316 m)
Flight conditions Visual Meteorological Conditions
Raw dataYSSY 270930Z 01005KT 9999 FEW016 SCT020 BKN030 23/19 Q1019 RF00.0/000.0
An error has occurred. This application may no longer respond until reloaded. Reload 🗙